Time;durP1;ratioP1;P1;durP2;ratioP2;P2;SDS_P1;SDS_P2;PMS_P1;PMS_P2;Temp;Humidity;BMP_temperature;BMP_pressure;BME280_temperature;BME280_humidity;BME280_pressure;Samples;Min_cycle;Max_cycle;Signal;HPM_P1;HPM_P2
2023/07/21 00:00:15;;;;;;;0.85;0.15;;;13.30;99.90;;;;;;4999493;28;20037;-68
2023/07/21 00:02:41;;;;;;;0.22;0.10;;;13.30;99.90;;;;;;5000989;28;20042;-68
2023/07/21 00:05:08;;;;;;;0.38;0.17;;;13.20;99.90;;;;;;5006350;28;20409;-69
2023/07/21 00:07:35;;;;;;;0.28;0.20;;;13.20;99.90;;;;;;4999011;28;20064;-68
2023/07/21 00:10:08;;;;;;;0.65;0.17;;;13.20;99.90;;;;;;5003638;28;20073;-68
2023/07/21 00:12:46;;;;;;;1.15;0.10;;;13.20;99.90;;;;;;5002053;28;20054;-68
2023/07/21 00:15:16;;;;;;;0.55;0.30;;;13.20;99.90;;;;;;5007695;28;20092;-69
2023/07/21 00:17:49;;;;;;;0.13;0.10;;;13.10;99.90;;;;;;4998261;28;20034;-68
2023/07/21 00:20:19;;;;;;;0.60;0.10;;;13.20;99.90;;;;;;5004915;28;20034;-68
2023/07/21 00:22:46;;;;;;;0.80;0.38;;;13.20;99.90;;;;;;5005345;28;20038;-68
2023/07/21 00:25:11;;;;;;;0.55;0.20;;;13.30;99.90;;;;;;5000790;28;20069;-68
2023/07/21 00:27:44;;;;;;;0.20;0.15;;;13.30;99.90;;;;;;5002237;28;20545;-68
2023/07/21 00:30:10;;;;;;;0.00;0.00;;;13.30;99.90;;;;;;5008355;28;20359;-68
2023/07/21 00:32:38;;;;;;;1.20;0.40;;;13.30;99.90;;;;;;5000260;28;20056;-68
2023/07/21 00:35:06;;;;;;;0.77;0.20;;;13.20;99.90;;;;;;5002879;28;20145;-68
2023/07/21 00:37:31;;;;;;;0.35;0.20;;;13.20;99.90;;;;;;4999955;28;20042;-68
2023/07/21 00:39:57;;;;;;;2.92;0.40;;;13.20;99.90;;;;;;5005084;28;20052;-68
2023/07/21 00:42:23;;;;;;;0.85;0.20;;;13.20;99.90;;;;;;4997987;28;20030;-68
2023/07/21 00:44:49;;;;;;;0.30;0.10;;;13.30;99.90;;;;;;5001040;28;20065;-68
2023/07/21 00:47:15;;;;;;;0.50;0.20;;;13.30;99.90;;;;;;4999688;28;20433;-68
2023/07/21 00:49:41;;;;;;;0.55;0.20;;;13.30;99.90;;;;;;5001843;28;20042;-68
2023/07/21 00:52:09;;;;;;;0.00;0.00;;;13.30;99.90;;;;;;5004789;28;20041;-68
2023/07/21 00:54:36;;;;;;;0.28;0.10;;;13.30;99.90;;;;;;4996846;28;20077;-69
2023/07/21 00:57:01;;;;;;;0.50;0.20;;;13.30;99.90;;;;;;4997269;28;20034;-68
2023/07/21 00:59:28;;;;;;;1.00;0.30;;;13.20;99.90;;;;;;4998704;28;20788;-69
2023/07/21 01:01:53;;;;;;;0.10;0.10;;;13.30;99.90;;;;;;5004170;28;20085;-68
2023/07/21 01:04:20;;;;;;;0.25;0.20;;;13.30;99.90;;;;;;5000460;28;20053;-68
2023/07/21 01:06:46;;;;;;;0.45;0.10;;;13.30;99.90;;;;;;5000816;28;20037;-68
2023/07/21 01:09:13;;;;;;;0.20;0.10;;;13.30;99.90;;;;;;5005929;28;20037;-68
2023/07/21 01:11:39;;;;;;;0.20;0.10;;;13.30;99.90;;;;;;5010355;28;20057;-68
2023/07/21 01:14:07;;;;;;;0.60;0.30;;;13.30;99.90;;;;;;5006652;28;20057;-68
2023/07/21 01:16:43;;;;;;;0.30;0.20;;;13.20;99.90;;;;;;5007142;28;20486;-68
2023/07/21 01:19:15;;;;;;;0.20;0.10;;;13.20;99.90;;;;;;5008995;28;20490;-68
2023/07/21 01:22:10;;;;;;;0.40;0.17;;;13.20;99.90;;;;;;5010429;28;20045;-68
2023/07/21 01:24:50;;;;;;;0.15;0.08;;;13.20;99.90;;;;;;5011978;28;20132;-68
2023/07/21 01:27:21;;;;;;;0.25;0.10;;;13.20;99.90;;;;;;5017885;28;20045;-68
2023/07/21 01:29:49;;;;;;;0.57;0.22;;;13.20;99.90;;;;;;5009413;28;20639;-68
2023/07/21 01:32:18;;;;;;;0.70;0.30;;;13.20;99.90;;;;;;5014109;28;20671;-68
2023/07/21 01:34:44;;;;;;;0.45;0.17;;;13.20;99.90;;;;;;5002779;28;20045;-68
2023/07/21 01:37:12;;;;;;;0.35;0.20;;;13.20;99.90;;;;;;5005198;28;20049;-68
2023/07/21 01:39:39;;;;;;;0.75;0.25;;;13.10;99.90;;;;;;5004878;28;20191;-68
2023/07/21 01:42:06;;;;;;;0.52;0.10;;;13.10;99.90;;;;;;5002331;28;20052;-68
2023/07/21 01:44:33;;;;;;;0.50;0.30;;;13.10;99.90;;;;;;5007431;28;20113;-68
2023/07/21 01:46:58;;;;;;;0.70;0.20;;;13.20;99.90;;;;;;5021067;28;20140;-68
2023/07/21 01:49:24;;;;;;;0.10;0.10;;;13.20;99.90;;;;;;5007741;28;20085;-68
2023/07/21 01:51:56;;;;;;;0.10;0.10;;;13.20;99.90;;;;;;5001574;28;20050;-68
2023/07/21 01:54:28;;;;;;;0.38;0.10;;;13.20;99.90;;;;;;5008706;28;20050;-68
2023/07/21 01:57:06;;;;;;;0.38;0.17;;;13.20;99.90;;;;;;5009803;28;20371;-69
2023/07/21 01:59:32;;;;;;;0.43;0.13;;;13.20;99.90;;;;;;5005626;28;20046;-69
2023/07/21 02:01:59;;;;;;;0.13;0.13;;;13.20;99.90;;;;;;5004415;28;20406;-68
2023/07/21 02:04:26;;;;;;;0.60;0.20;;;13.20;99.90;;;;;;5008774;28;20441;-68
2023/07/21 02:06:52;;;;;;;0.30;0.20;;;13.20;99.90;;;;;;5004750;28;20041;-68
2023/07/21 02:09:19;;;;;;;0.38;0.25;;;13.10;99.90;;;;;;5009136;28;20593;-67
2023/07/21 02:11:45;;;;;;;1.23;0.10;;;13.10;99.90;;;;;;5008046;28;20395;-67
2023/07/21 02:14:11;;;;;;;0.20;0.10;;;13.00;99.90;;;;;;4997404;28;20046;-68
2023/07/21 02:16:37;;;;;;;0.65;0.20;;;13.00;99.90;;;;;;5007641;28;20452;-68
2023/07/21 02:19:06;;;;;;;0.32;0.20;;;13.00;99.90;;;;;;5006054;28;20375;-68
2023/07/21 02:21:34;;;;;;;0.47;0.20;;;12.90;99.90;;;;;;4995881;28;20133;-68
2023/07/21 02:24:00;;;;;;;0.08;0.08;;;12.90;99.90;;;;;;5004595;28;20500;-68
2023/07/21 02:26:26;;;;;;;0.30;0.17;;;12.80;99.90;;;;;;5003008;28;20076;-68
2023/07/21 02:28:52;;;;;;;0.70;0.30;;;12.80;99.90;;;;;;5006368;28;20073;-68
2023/07/21 02:31:21;;;;;;;1.02;0.38;;;12.80;99.90;;;;;;4993515;28;20109;-68
2023/07/21 02:33:47;;;;;;;0.57;0.20;;;12.80;99.90;;;;;;5004727;28;20058;-68
2023/07/21 02:36:13;;;;;;;0.38;0.10;;;12.70;99.90;;;;;;5002798;28;20062;-68
2023/07/21 02:38:39;;;;;;;1.10;0.25;;;12.80;99.90;;;;;;5004457;28;20042;-68
2023/07/21 02:41:05;;;;;;;0.50;0.30;;;12.70;99.90;;;;;;4991642;28;20494;-68
2023/07/21 02:43:32;;;;;;;0.55;0.20;;;12.70;99.90;;;;;;5009663;28;20045;-68
2023/07/21 02:45:58;;;;;;;0.20;0.10;;;12.70;99.90;;;;;;5003186;28;20056;-67
2023/07/21 02:48:24;;;;;;;0.52;0.25;;;12.70;99.90;;;;;;5004478;28;20032;-67
2023/07/21 02:50:51;;;;;;;0.70;0.30;;;12.70;99.90;;;;;;4991634;28;20046;-68
2023/07/21 02:53:19;;;;;;;0.85;0.30;;;12.70;99.90;;;;;;5001368;28;20034;-68
2023/07/21 02:55:45;;;;;;;0.45;0.15;;;12.60;99.90;;;;;;5004878;28;20042;-68
2023/07/21 02:58:13;;;;;;;0.20;0.10;;;12.70;99.90;;;;;;5007198;28;20100;-68
2023/07/21 03:00:40;;;;;;;0.63;0.28;;;12.60;99.90;;;;;;5000566;28;20126;-67
2023/07/21 03:03:08;;;;;;;0.08;0.08;;;12.60;99.90;;;;;;4999724;28;20398;-68
2023/07/21 03:05:35;;;;;;;0.22;0.22;;;12.70;99.90;;;;;;5006568;28;20524;-68
2023/07/21 03:08:02;;;;;;;0.65;0.20;;;12.60;99.90;;;;;;4995215;28;20034;-68
2023/07/21 03:10:27;;;;;;;3.05;0.57;;;12.60;99.90;;;;;;4996519;28;20042;-68
2023/07/21 03:12:53;;;;;;;1.20;0.40;;;12.60;99.90;;;;;;5002100;28;20049;-68
2023/07/21 03:15:19;;;;;;;0.90;0.30;;;12.50;99.90;;;;;;4999497;28;20042;-68
2023/07/21 03:17:46;;;;;;;0.40;0.20;;;12.40;99.90;;;;;;5000602;28;20066;-68
2023/07/21 03:20:12;;;;;;;1.08;0.30;;;12.40;99.90;;;;;;4998587;28;20038;-68
2023/07/21 03:22:44;;;;;;;1.00;0.20;;;12.30;99.90;;;;;;5001729;28;20073;-68
2023/07/21 03:25:12;;;;;;;0.70;0.32;;;12.30;99.90;;;;;;4998364;28;20085;-68
2023/07/21 03:27:39;;;;;;;0.40;0.20;;;12.20;99.90;;;;;;4993316;28;20097;-68
2023/07/21 03:30:12;;;;;;;0.65;0.50;;;12.10;99.90;;;;;;4997065;28;20048;-68
2023/07/21 03:32:38;;;;;;;0.10;0.10;;;12.10;99.90;;;;;;5005758;28;20613;-68
2023/07/21 03:35:05;;;;;;;1.17;0.43;;;12.10;99.90;;;;;;4998740;28;20503;-68
2023/07/21 03:37:34;;;;;;;0.35;0.22;;;12.10;99.90;;;;;;4993588;28;20392;-68
2023/07/21 03:40:06;;;;;;;3.45;0.30;;;12.10;99.90;;;;;;5000997;28;20037;-68
2023/07/21 03:42:33;;;;;;;0.90;0.65;;;12.10;99.90;;;;;;5005640;28;20042;-68
2023/07/21 03:45:04;;;;;;;0.68;0.35;;;12.20;99.90;;;;;;5004166;28;20046;-68
2023/07/21 03:47:34;;;;;;;0.47;0.30;;;12.20;99.90;;;;;;4998361;28;20186;-68
2023/07/21 03:50:01;;;;;;;0.43;0.30;;;12.10;99.90;;;;;;5004481;28;20044;-68
2023/07/21 03:52:29;;;;;;;0.63;0.43;;;12.10;99.90;;;;;;5000541;28;20046;-67
2023/07/21 03:54:55;;;;;;;1.23;0.50;;;12.10;99.90;;;;;;4986769;28;20121;-68
2023/07/21 03:57:21;;;;;;;1.50;0.30;;;12.10;99.90;;;;;;4996451;28;20202;-68
2023/07/21 03:59:48;;;;;;;0.80;0.43;;;12.20;99.90;;;;;;5002229;28;20042;-67
2023/07/21 04:02:16;;;;;;;0.20;0.13;;;12.20;99.90;;;;;;5003876;28;20042;-68
2023/07/21 04:04:42;;;;;;;0.30;0.20;;;12.20;99.90;;;;;;4998193;28;20126;-68
2023/07/21 04:07:08;;;;;;;0.45;0.30;;;12.20;99.90;;;;;;4999785;28;20063;-68
2023/07/21 04:09:34;;;;;;;2.13;0.40;;;12.30;99.90;;;;;;5000466;28;20050;-68
2023/07/21 04:12:01;;;;;;;0.60;0.22;;;12.20;99.90;;;;;;5001736;28;20525;-68
2023/07/21 04:14:27;;;;;;;0.38;0.20;;;12.30;99.90;;;;;;5006758;28;20117;-68
2023/07/21 04:16:54;;;;;;;0.50;0.30;;;12.30;99.90;;;;;;5002615;28;20538;-68
2023/07/21 04:19:20;;;;;;;1.88;0.77;;;12.30;99.90;;;;;;5005472;28;20054;-68
2023/07/21 04:21:47;;;;;;;0.65;0.25;;;12.40;99.90;;;;;;4999016;28;20393;-68
2023/07/21 04:24:13;;;;;;;0.52;0.38;;;12.40;99.90;;;;;;4999047;28;20084;-68
2023/07/21 04:26:39;;;;;;;4.32;0.77;;;12.40;99.90;;;;;;5005294;28;20149;-68
2023/07/21 04:29:06;;;;;;;0.60;0.30;;;12.50;99.90;;;;;;5003555;28;20049;-68
2023/07/21 04:31:32;;;;;;;0.77;0.30;;;12.50;99.90;;;;;;5001712;28;20441;-67
2023/07/21 04:33:58;;;;;;;1.15;0.45;;;12.60;99.90;;;;;;5003433;28;20042;-67
2023/07/21 04:36:24;;;;;;;0.85;0.57;;;12.60;99.90;;;;;;5007168;28;20096;-67
2023/07/21 04:38:50;;;;;;;0.70;0.40;;;12.60;99.90;;;;;;4991501;28;20045;-68
2023/07/21 04:41:16;;;;;;;0.40;0.20;;;12.70;99.90;;;;;;5006665;28;20034;-68
2023/07/21 04:43:43;;;;;;;0.80;0.40;;;12.70;99.90;;;;;;5006226;28;20052;-68
2023/07/21 04:46:10;;;;;;;1.05;0.70;;;12.80;99.90;;;;;;5002285;28;20073;-68
2023/07/21 04:48:36;;;;;;;0.50;0.25;;;12.80;99.90;;;;;;5005774;28;20046;-68
2023/07/21 04:51:04;;;;;;;0.82;0.30;;;12.90;99.90;;;;;;5003827;28;20073;-68
2023/07/21 04:53:30;;;;;;;0.68;0.40;;;13.00;99.90;;;;;;5005037;28;20064;-68
2023/07/21 04:55:57;;;;;;;0.20;0.10;;;13.10;99.90;;;;;;4995702;28;20034;-68
2023/07/21 04:58:24;;;;;;;1.20;0.45;;;13.10;99.90;;;;;;5004451;28;20140;-68
2023/07/21 05:00:50;;;;;;;1.80;0.50;;;13.30;99.90;;;;;;5004186;28;20046;-68
2023/07/21 05:03:16;;;;;;;0.80;0.40;;;13.40;99.90;;;;;;4998123;28;20049;-68
2023/07/21 05:05:44;;;;;;;0.73;0.20;;;13.60;99.90;;;;;;4991074;28;20483;-68
2023/07/21 05:08:10;;;;;;;0.45;0.30;;;13.80;99.90;;;;;;4986635;28;20175;-68
2023/07/21 05:10:36;;;;;;;0.43;0.35;;;14.00;99.90;;;;;;5002706;28;20125;-68
2023/07/21 05:13:05;;;;;;;0.52;0.30;;;14.20;99.90;;;;;;4996027;28;20090;-69
2023/07/21 05:15:35;;;;;;;0.60;0.32;;;14.50;99.90;;;;;;4998800;28;20077;-68
2023/07/21 05:18:04;;;;;;;1.98;0.55;;;14.60;99.90;;;;;;5007556;28;20103;-68
2023/07/21 05:20:29;;;;;;;0.60;0.30;;;14.70;99.90;;;;;;4995408;28;20042;-68
2023/07/21 05:22:55;;;;;;;6.68;3.92;;;14.60;99.90;;;;;;4998291;28;20049;-67
2023/07/21 05:25:21;;;;;;;8.43;4.57;;;14.60;99.90;;;;;;5004393;28;20044;-67
2023/07/21 05:27:47;;;;;;;3.85;1.08;;;14.70;99.90;;;;;;4990639;28;20102;-67
2023/07/21 05:30:13;;;;;;;2.25;0.70;;;14.70;99.90;;;;;;5006004;28;20527;-67
2023/07/21 05:32:41;;;;;;;0.85;0.40;;;14.70;99.90;;;;;;5004108;28;20182;-67
2023/07/21 05:35:07;;;;;;;1.00;0.43;;;14.60;99.90;;;;;;5009205;28;20045;-67
2023/07/21 05:37:33;;;;;;;2.55;0.45;;;14.60;99.90;;;;;;5007237;28;20061;-67
2023/07/21 05:39:59;;;;;;;7.45;4.70;;;14.60;99.90;;;;;;5005801;28;20522;-67
2023/07/21 05:42:24;;;;;;;11.40;6.18;;;14.60;99.90;;;;;;5005554;28;20279;-68
2023/07/21 05:44:50;;;;;;;1.27;0.73;;;14.60;99.90;;;;;;5007422;28;20065;-68
2023/07/21 05:47:16;;;;;;;1.08;0.43;;;14.70;99.90;;;;;;5005946;28;20126;-67
2023/07/21 05:49:41;;;;;;;1.10;0.60;;;14.80;99.90;;;;;;5004900;28;20049;-68
2023/07/21 05:52:07;;;;;;;0.25;0.20;;;14.90;99.90;;;;;;5005103;28;20470;-68
2023/07/21 05:54:33;;;;;;;0.98;0.52;;;15.00;99.90;;;;;;5009184;28;20044;-68
2023/07/21 05:56:59;;;;;;;0.43;0.28;;;15.10;99.90;;;;;;5008739;28;20069;-68
2023/07/21 05:59:24;;;;;;;0.82;0.30;;;15.30;99.90;;;;;;5006337;28;20037;-68
2023/07/21 06:01:51;;;;;;;1.15;0.10;;;15.40;99.90;;;;;;5008336;28;20547;-67
2023/07/21 06:04:17;;;;;;;0.30;0.10;;;15.60;99.90;;;;;;5010379;28;20041;-67
2023/07/21 06:06:43;;;;;;;0.13;0.10;;;15.70;99.90;;;;;;5011723;28;20089;-67
2023/07/21 06:09:09;;;;;;;1.48;0.30;;;15.80;99.90;;;;;;5008641;28;20049;-68
2023/07/21 06:11:35;;;;;;;0.65;0.15;;;15.90;99.90;;;;;;5007665;28;20038;-68
2023/07/21 06:14:01;;;;;;;0.43;0.15;;;16.10;99.90;;;;;;5006418;28;20120;-68
2023/07/21 06:16:26;;;;;;;0.00;0.00;;;16.20;99.90;;;;;;5000721;28;20116;-67
2023/07/21 06:18:52;;;;;;;1.55;0.28;;;16.40;99.90;;;;;;4998693;28;20467;-67
2023/07/21 06:21:22;;;;;;;0.50;0.17;;;16.50;99.90;;;;;;5004259;28;20064;-67
2023/07/21 06:23:48;;;;;;;0.55;0.10;;;16.60;99.90;;;;;;5003706;28;20084;-68
2023/07/21 06:26:14;;;;;;;2.33;0.30;;;16.60;99.90;;;;;;5003421;28;20073;-68
2023/07/21 06:28:40;;;;;;;0.40;0.10;;;16.70;99.90;;;;;;5007637;28;20037;-67
2023/07/21 06:31:05;;;;;;;0.25;0.10;;;16.80;99.90;;;;;;5016873;28;20042;-67
2023/07/21 06:33:31;;;;;;;0.00;0.00;;;17.00;99.90;;;;;;5003344;28;20050;-67
2023/07/21 06:35:57;;;;;;;0.10;0.10;;;17.10;99.90;;;;;;5002278;28;20131;-67
2023/07/21 06:38:23;;;;;;;0.10;0.00;;;17.20;99.90;;;;;;4999470;28;20065;-67
2023/07/21 06:40:51;;;;;;;1.27;0.10;;;17.30;99.90;;;;;;5006486;28;20049;-67
2023/07/21 06:43:16;;;;;;;0.10;0.00;;;17.40;99.90;;;;;;5008650;28;20038;-67
2023/07/21 06:45:42;;;;;;;0.40;0.10;;;17.50;99.90;;;;;;5009035;28;20065;-67
2023/07/21 06:48:08;;;;;;;0.57;0.20;;;17.60;99.90;;;;;;5003087;28;20038;-67
2023/07/21 06:50:33;;;;;;;0.38;0.20;;;17.70;99.90;;;;;;5008870;28;20390;-67
2023/07/21 06:52:59;;;;;;;0.08;0.00;;;17.80;99.90;;;;;;5008251;28;20044;-67
2023/07/21 06:55:25;;;;;;;0.30;0.00;;;17.80;99.90;;;;;;5006443;28;20111;-67
2023/07/21 06:57:51;;;;;;;0.22;0.10;;;17.90;99.90;;;;;;5007560;28;20560;-67
2023/07/21 07:00:18;;;;;;;0.00;0.00;;;17.90;99.90;;;;;;5008010;28;20141;-67
2023/07/21 07:02:48;;;;;;;0.20;0.00;;;18.00;99.90;;;;;;5009913;28;20116;-67
2023/07/21 07:05:17;;;;;;;0.00;0.00;;;18.10;99.90;;;;;;5008203;28;20033;-67
2023/07/21 07:07:43;;;;;;;0.00;0.00;;;18.20;99.90;;;;;;5003723;28;20037;-67
2023/07/21 07:10:10;;;;;;;0.95;0.08;;;18.40;99.90;;;;;;5000680;28;20045;-67
2023/07/21 07:12:37;;;;;;;0.10;0.10;;;18.50;99.90;;;;;;5005497;28;20072;-67
2023/07/21 07:15:03;;;;;;;0.20;0.10;;;18.70;99.90;;;;;;5009058;28;20100;-67
2023/07/21 07:17:29;;;;;;;0.17;0.05;;;18.70;99.90;;;;;;4994609;28;20533;-67
2023/07/21 07:19:55;;;;;;;0.00;0.00;;;18.60;99.90;;;;;;5002014;28;20077;-67
2023/07/21 07:22:20;;;;;;;0.05;0.00;;;18.60;99.90;;;;;;5005942;28;20060;-67
2023/07/21 07:24:46;;;;;;;0.45;0.20;;;18.50;99.90;;;;;;5002680;28;20030;-67
2023/07/21 07:27:12;;;;;;;0.00;0.00;;;18.40;99.90;;;;;;5000529;28;20042;-67
2023/07/21 07:29:37;;;;;;;0.10;0.00;;;18.30;99.90;;;;;;5003644;28;20295;-67
2023/07/21 07:32:03;;;;;;;0.20;0.08;;;18.30;99.90;;;;;;5004345;28;20041;-67
2023/07/21 07:34:29;;;;;;;0.45;0.00;;;18.30;99.90;;;;;;4995355;28;20105;-67
2023/07/21 07:36:57;;;;;;;0.43;0.10;;;18.50;99.90;;;;;;4997806;28;20065;-67
2023/07/21 07:39:24;;;;;;;0.20;0.10;;;18.50;99.90;;;;;;5001784;28;20053;-67
2023/07/21 07:41:51;;;;;;;0.05;0.00;;;18.70;99.90;;;;;;5003098;28;20391;-67
2023/07/21 07:44:20;;;;;;;0.00;0.00;;;18.80;99.90;;;;;;5000588;28;20034;-67
2023/07/21 07:46:46;;;;;;;0.08;0.00;;;18.90;99.90;;;;;;4997734;28;20100;-67
2023/07/21 07:49:11;;;;;;;0.20;0.00;;;18.90;99.90;;;;;;5004748;28;20038;-67
2023/07/21 07:51:40;;;;;;;0.13;0.00;;;19.00;99.90;;;;;;5007078;28;20042;-67
2023/07/21 07:54:07;;;;;;;0.10;0.00;;;19.10;99.90;;;;;;5000839;28;20046;-67
2023/07/21 07:56:33;;;;;;;0.10;0.00;;;19.20;99.90;;;;;;4999479;28;20056;-67
2023/07/21 07:58:59;;;;;;;0.20;0.10;;;19.20;99.90;;;;;;5005379;28;20033;-68
2023/07/21 08:01:26;;;;;;;0.40;0.10;;;19.30;99.90;;;;;;5007894;28;20180;-67
2023/07/21 08:03:53;;;;;;;0.28;0.05;;;19.40;99.90;;;;;;5003026;28;20099;-67
2023/07/21 08:06:20;;;;;;;0.00;0.00;;;19.50;99.90;;;;;;4998586;28;20102;-68
2023/07/21 08:08:46;;;;;;;0.13;0.05;;;19.70;99.90;;;;;;5003174;28;20474;-68
2023/07/21 08:11:11;;;;;;;0.20;0.00;;;19.90;99.90;;;;;;4994628;28;20121;-67
2023/07/21 08:13:39;;;;;;;0.17;0.00;;;20.10;99.90;;;;;;4998692;28;20054;-67
2023/07/21 08:16:13;;;;;;;0.15;0.10;;;20.30;99.90;;;;;;4997352;28;20312;-67
2023/07/21 08:18:39;;;;;;;1.00;0.10;;;20.40;99.90;;;;;;5003085;28;20501;-67
2023/07/21 08:21:22;;;;;;;0.15;0.15;;;20.50;99.90;;;;;;4996381;28;20046;-67
2023/07/21 08:23:49;;;;;;;0.10;0.00;;;20.50;99.90;;;;;;4998599;28;20858;-67
2023/07/21 08:26:15;;;;;;;0.05;0.00;;;20.60;99.90;;;;;;5004438;28;20065;-67
2023/07/21 08:28:41;;;;;;;0.10;0.10;;;20.60;99.90;;;;;;5001552;28;20030;-67
2023/07/21 08:31:09;;;;;;;0.00;0.00;;;20.50;99.90;;;;;;5003679;28;20109;-67
2023/07/21 08:33:35;;;;;;;0.03;0.03;;;20.40;99.90;;;;;;4994302;28;20042;-68
2023/07/21 08:36:01;;;;;;;0.25;0.10;;;20.30;99.90;;;;;;5005987;28;20049;-68
2023/07/21 08:38:27;;;;;;;0.30;0.20;;;20.20;99.90;;;;;;5008540;28;20093;-68
2023/07/21 08:41:08;;;;;;;0.20;0.03;;;20.40;99.90;;;;;;5003085;28;20042;-68
2023/07/21 08:43:34;;;;;;;0.77;0.10;;;20.50;99.90;;;;;;5000711;28;20058;-68
2023/07/21 08:46:03;;;;;;;0.20;0.08;;;20.30;99.90;;;;;;5005074;28;20042;-68
2023/07/21 08:48:30;;;;;;;0.00;0.00;;;20.10;99.90;;;;;;5005247;28;20120;-68
2023/07/21 08:50:56;;;;;;;0.45;0.20;;;20.00;99.90;;;;;;5005907;28;20042;-68
2023/07/21 08:53:26;;;;;;;0.13;0.00;;;20.10;99.90;;;;;;5006639;28;20045;-68
2023/07/21 08:55:56;;;;;;;0.22;0.10;;;20.40;99.90;;;;;;5003940;28;20069;-68
2023/07/21 08:58:23;;;;;;;0.03;0.00;;;20.50;99.90;;;;;;5006340;28;20038;-68
2023/07/21 09:00:50;;;;;;;0.10;0.00;;;20.70;99.90;;;;;;5004267;28;20045;-68
2023/07/21 09:03:23;;;;;;;0.00;0.00;;;21.00;99.90;;;;;;5005920;28;20034;-67
2023/07/21 09:05:50;;;;;;;0.00;0.00;;;21.50;99.90;;;;;;5007570;28;20083;-68
2023/07/21 09:08:20;;;;;;;0.60;0.00;;;21.80;99.60;;;;;;5006379;28;20045;-68
2023/07/21 09:10:46;;;;;;;0.00;0.00;;;21.70;99.90;;;;;;5000677;28;20046;-68
2023/07/21 09:13:19;;;;;;;0.30;0.00;;;21.60;99.70;;;;;;4986423;28;20464;-68
2023/07/21 09:15:56;;;;;;;0.03;0.00;;;21.80;97.50;;;;;;5000326;28;20042;-68
2023/07/21 09:18:26;;;;;;;0.00;0.00;;;22.00;99.20;;;;;;4999595;28;20034;-67
2023/07/21 09:20:52;;;;;;;0.10;0.00;;;21.90;94.20;;;;;;4993690;28;20057;-68
2023/07/21 09:23:19;;;;;;;0.10;0.00;;;21.70;99.90;;;;;;4994431;28;20042;-68
2023/07/21 09:25:56;;;;;;;0.30;0.10;;;21.80;99.90;;;;;;5003138;28;20038;-68
2023/07/21 09:28:42;;;;;;;0.00;0.00;;;21.80;99.90;;;;;;4996232;28;20052;-68
2023/07/21 09:31:08;;;;;;;0.10;0.08;;;21.60;94.30;;;;;;5000939;28;20077;-67
2023/07/21 09:33:38;;;;;;;0.10;0.00;;;21.50;96.60;;;;;;5004157;28;20049;-67
2023/07/21 09:36:10;;;;;;;0.00;0.00;;;21.20;95.50;;;;;;5000708;28;20121;-68
2023/07/21 09:38:39;;;;;;;0.10;0.00;;;21.10;99.90;;;;;;4998835;28;20076;-68
2023/07/21 09:41:10;;;;;;;2.80;0.10;;;20.90;99.90;;;;;;4998908;28;20088;-67
2023/07/21 09:43:37;;;;;;;0.00;0.00;;;21.10;99.90;;;;;;5005953;28;20045;-67
2023/07/21 09:46:05;;;;;;;0.08;0.00;;;21.50;95.90;;;;;;5003603;28;20132;-67
2023/07/21 09:48:31;;;;;;;0.17;0.13;;;21.80;95.90;;;;;;5003807;28;20046;-67
2023/07/21 09:51:05;;;;;;;0.25;0.10;;;22.00;95.80;;;;;;5009655;28;20120;-67
2023/07/21 09:53:42;;;;;;;0.10;0.10;;;22.30;98.70;;;;;;5001792;28;20034;-67
2023/07/21 09:56:10;;;;;;;0.20;0.10;;;22.50;97.50;;;;;;5002641;28;20082;-67
2023/07/21 09:58:41;;;;;;;0.52;0.00;;;22.30;95.20;;;;;;5008002;28;20479;-67
2023/07/21 10:01:09;;;;;;;0.55;0.43;;;22.20;97.90;;;;;;5006939;28;20042;-67
2023/07/21 10:03:36;;;;;;;0.43;0.10;;;22.00;96.60;;;;;;5002110;28;20085;-68
2023/07/21 10:06:03;;;;;;;0.17;0.03;;;21.90;96.80;;;;;;5001006;28;20116;-68
2023/07/21 10:08:33;;;;;;;0.20;0.03;;;21.80;96.60;;;;;;4999127;28;20073;-68
2023/07/21 10:11:00;;;;;;;0.00;0.00;;;21.70;96.90;;;;;;5003433;28;20081;-68
2023/07/21 10:13:27;;;;;;;0.60;0.10;;;21.80;98.40;;;;;;5007723;28;20512;-67
2023/07/21 10:15:59;;;;;;;0.17;0.00;;;21.80;96.70;;;;;;5003593;28;20034;-67
2023/07/21 10:18:25;;;;;;;0.10;0.10;;;21.80;96.20;;;;;;5006245;28;20157;-68
2023/07/21 10:20:54;;;;;;;0.00;0.00;;;21.80;95.40;;;;;;5001119;28;20133;-68
2023/07/21 10:23:25;;;;;;;0.40;0.10;;;21.80;94.80;;;;;;5007248;28;20278;-68
2023/07/21 10:25:51;;;;;;;0.10;0.00;;;21.90;95.70;;;;;;4999982;28;20406;-68
2023/07/21 10:28:24;;;;;;;0.00;0.00;;;22.10;96.90;;;;;;5005652;28;20098;-68
2023/07/21 10:30:50;;;;;;;0.00;0.00;;;22.10;96.00;;;;;;5006118;28;20120;-68
2023/07/21 10:33:18;;;;;;;0.22;0.10;;;22.10;95.30;;;;;;5011244;28;20406;-67
2023/07/21 10:35:43;;;;;;;0.03;0.00;;;22.20;97.80;;;;;;5007955;28;20061;-68
2023/07/21 10:38:15;;;;;;;0.03;0.00;;;22.10;96.90;;;;;;5008734;28;20034;-68
2023/07/21 10:40:41;;;;;;;0.30;0.15;;;22.00;96.00;;;;;;5008325;28;20050;-67
2023/07/21 10:43:07;;;;;;;0.25;0.20;;;21.90;95.40;;;;;;5009422;28;20046;-67
2023/07/21 10:45:33;;;;;;;0.10;0.00;;;21.90;95.10;;;;;;5005430;28;20657;-67
2023/07/21 10:48:13;;;;;;;0.10;0.00;;;21.90;95.00;;;;;;5007387;28;20041;-68
2023/07/21 10:50:51;;;;;;;0.10;0.00;;;22.20;95.30;;;;;;5008220;28;20542;-68
2023/07/21 10:53:17;;;;;;;0.15;0.05;;;22.70;96.80;;;;;;5005669;28;20491;-67
2023/07/21 10:55:42;;;;;;;0.20;0.00;;;23.10;97.10;;;;;;5003233;28;20038;-68
2023/07/21 10:58:08;;;;;;;0.05;0.05;;;23.20;94.90;;;;;;5010455;28;20489;-67
2023/07/21 11:00:51;;;;;;;0.00;0.00;;;23.20;97.00;;;;;;5011223;28;20038;-67
2023/07/21 11:03:17;;;;;;;0.20;0.08;;;23.20;94.00;;;;;;5010230;28;20044;-67
2023/07/21 11:05:43;;;;;;;0.10;0.10;;;23.00;95.80;;;;;;5006000;28;20042;-67
2023/07/21 11:08:25;;;;;;;0.13;0.10;;;22.80;94.50;;;;;;5009208;28;20084;-67
2023/07/21 11:10:51;;;;;;;0.35;0.00;;;22.50;92.60;;;;;;5010107;28;20061;-67
2023/07/21 11:13:17;;;;;;;0.38;0.10;;;22.20;94.60;;;;;;5008578;28;20088;-68
2023/07/21 11:15:53;;;;;;;0.22;0.05;;;22.00;94.40;;;;;;5006115;28;20096;-67
2023/07/21 11:18:19;;;;;;;0.20;0.10;;;21.80;94.40;;;;;;5010302;28;20199;-67
2023/07/21 11:20:52;;;;;;;0.20;0.00;;;21.70;96.10;;;;;;5008384;28;20046;-67
2023/07/21 11:23:22;;;;;;;0.20;0.00;;;21.80;94.00;;;;;;4996777;28;20678;-67
2023/07/21 11:26:09;;;;;;;0.00;0.00;;;22.00;94.90;;;;;;4998793;28;20053;-68
2023/07/21 11:28:38;;;;;;;0.15;0.00;;;22.60;96.90;;;;;;5002299;28;20084;-67
2023/07/21 11:31:15;;;;;;;0.10;0.10;;;23.30;96.90;;;;;;5002278;28;20041;-68
2023/07/21 11:33:46;;;;;;;0.20;0.10;;;23.80;87.10;;;;;;5004414;28;20041;-67
2023/07/21 11:36:22;;;;;;;0.47;0.00;;;23.80;91.00;;;;;;5009846;28;20489;-68
2023/07/21 11:39:04;;;;;;;0.30;0.00;;;23.70;90.70;;;;;;5008678;28;20041;-67
2023/07/21 11:41:36;;;;;;;0.08;0.00;;;23.60;82.20;;;;;;5004163;28;20065;-67
2023/07/21 11:44:05;;;;;;;0.05;0.00;;;23.70;87.90;;;;;;5024612;28;20040;-68
2023/07/21 11:46:31;;;;;;;0.17;0.10;;;23.70;92.90;;;;;;5007017;28;20056;-68
2023/07/21 11:48:57;;;;;;;0.20;0.00;;;23.70;92.20;;;;;;5009290;28;20371;-67
2023/07/21 11:51:23;;;;;;;0.00;0.00;;;23.70;91.40;;;;;;5009077;28;20042;-68
2023/07/21 11:53:49;;;;;;;0.00;0.00;;;24.00;85.70;;;;;;5007547;28;20041;-68
2023/07/21 11:56:15;;;;;;;0.28;0.00;;;24.50;88.90;;;;;;5006292;28;20073;-67
2023/07/21 11:58:42;;;;;;;0.15;0.00;;;24.80;89.20;;;;;;5010201;28;20148;-67
2023/07/21 12:01:08;;;;;;;0.28;0.00;;;25.00;86.00;;;;;;5004867;28;20458;-68
2023/07/21 12:03:37;;;;;;;0.05;0.00;;;25.00;79.80;;;;;;5007884;28;20118;-68
2023/07/21 12:06:04;;;;;;;0.30;0.10;;;24.90;78.00;;;;;;5007867;28;20176;-68
2023/07/21 12:08:30;;;;;;;0.00;0.00;;;24.60;79.10;;;;;;5008653;28;20112;-67
2023/07/21 12:10:57;;;;;;;0.00;0.00;;;24.50;69.90;;;;;;5008428;28;20172;-67
2023/07/21 12:13:24;;;;;;;0.00;0.00;;;24.70;69.00;;;;;;5006202;28;20053;-68
2023/07/21 12:15:50;;;;;;;0.03;0.00;;;24.90;70.80;;;;;;5002158;28;20381;-68
2023/07/21 12:18:17;;;;;;;0.10;0.10;;;25.20;79.00;;;;;;5006974;28;20109;-68
2023/07/21 12:20:43;;;;;;;0.00;0.00;;;25.30;67.20;;;;;;5005370;28;20038;-68
2023/07/21 12:23:08;;;;;;;0.08;0.00;;;25.30;73.50;;;;;;5003726;28;20053;-68
2023/07/21 12:25:34;;;;;;;0.20;0.00;;;25.10;75.40;;;;;;5004348;28;20037;-68
2023/07/21 12:28:00;;;;;;;0.88;0.00;;;25.10;75.70;;;;;;5000557;28;20057;-68
2023/07/21 12:30:27;;;;;;;0.00;0.00;;;25.00;77.50;;;;;;5002960;28;20399;-67
2023/07/21 12:32:54;;;;;;;0.00;0.00;;;25.10;78.80;;;;;;5004588;28;20050;-67
2023/07/21 12:35:20;;;;;;;0.08;0.00;;;24.90;69.50;;;;;;5004505;28;20116;-67
2023/07/21 12:37:45;;;;;;;0.25;0.00;;;24.90;76.60;;;;;;5003381;28;20045;-67
2023/07/21 12:40:15;;;;;;;0.17;0.00;;;24.90;71.10;;;;;;5001576;28;20151;-67
2023/07/21 12:42:41;;;;;;;0.03;0.00;;;24.60;76.50;;;;;;4999190;28;20116;-68
2023/07/21 12:45:08;;;;;;;0.10;0.00;;;24.40;77.50;;;;;;5009366;28;20100;-68
2023/07/21 12:47:37;;;;;;;0.10;0.00;;;24.10;69.40;;;;;;5006840;28;20076;-68
2023/07/21 12:50:04;;;;;;;0.03;0.00;;;23.90;70.90;;;;;;4995420;28;20042;-67